createdAt,value
2022-11-13T00:00:58.836Z,6.20
2022-11-13T00:03:03.781Z,6.20
2022-11-13T00:05:08.552Z,6.10
2022-11-13T00:07:12.993Z,6.10
2022-11-13T00:09:17.407Z,6.00
2022-11-13T00:11:22.045Z,5.90
2022-11-13T00:13:30.348Z,5.90
2022-11-13T00:15:33.609Z,5.90
2022-11-13T00:17:38.058Z,5.90
2022-11-13T00:19:42.400Z,5.90
2022-11-13T00:21:46.812Z,5.90
2022-11-13T00:23:51.562Z,5.90
2022-11-13T00:25:55.931Z,5.80
2022-11-13T00:28:00.309Z,5.90
2022-11-13T00:30:06.020Z,5.90
2022-11-13T00:32:10.388Z,5.80
2022-11-13T00:34:40.846Z,5.80
2022-11-13T00:36:25.792Z,5.80
2022-11-13T00:38:28.152Z,5.80
2022-11-13T00:40:32.686Z,5.80
2022-11-13T00:42:37.136Z,5.70
2022-11-13T00:44:41.510Z,5.70
2022-11-13T00:46:45.918Z,5.70
2022-11-13T00:48:50.310Z,5.60
2022-11-13T00:50:55.013Z,5.60
2022-11-13T00:52:59.380Z,5.50
2022-11-13T00:55:04.260Z,5.60
2022-11-13T00:57:08.658Z,5.50
2022-11-13T00:59:13.064Z,5.50
2022-11-13T01:03:35.129Z,5.50
2022-11-13T01:05:40.210Z,5.60
2022-11-13T01:07:44.863Z,5.60
2022-11-13T01:09:50.830Z,5.50
2022-11-13T01:11:55.222Z,5.50
2022-11-13T01:13:59.689Z,5.40
2022-11-13T01:16:06.969Z,5.40
2022-11-13T01:18:11.789Z,5.30
2022-11-13T01:20:16.813Z,5.20
2022-11-13T01:22:21.656Z,5.20
2022-11-13T01:24:26.021Z,5.10
2022-11-13T01:26:30.735Z,5.00
2022-11-13T01:28:35.152Z,5.00
2022-11-13T01:30:39.553Z,5.00
2022-11-13T01:32:44.053Z,5.00
2022-11-13T01:34:48.434Z,5.00
2022-11-13T01:36:52.804Z,5.00
2022-11-13T01:38:57.298Z,5.00
2022-11-13T01:41:01.714Z,5.00
2022-11-13T01:43:16.739Z,5.00
2022-11-13T01:45:38.970Z,5.00
2022-11-13T01:47:43.359Z,5.00
2022-11-13T01:49:49.137Z,5.00
2022-11-13T01:51:55.604Z,4.90
2022-11-13T01:54:01.365Z,4.80
2022-11-13T01:56:06.280Z,4.80
2022-11-13T01:58:11.461Z,4.80
2022-11-13T02:00:16.333Z,4.80
2022-11-13T02:02:21.179Z,4.80
2022-11-13T02:04:25.841Z,4.70
2022-11-13T02:06:32.951Z,4.80
2022-11-13T02:08:37.331Z,4.70
2022-11-13T02:10:42.234Z,4.70
2022-11-13T02:12:48.260Z,4.70
2022-11-13T02:14:53.949Z,4.70
2022-11-13T02:17:00.238Z,4.70
2022-11-13T02:19:06.393Z,4.70
2022-11-13T02:21:17.906Z,4.70
2022-11-13T02:23:25.229Z,4.70
2022-11-13T02:25:30.093Z,4.70
2022-11-13T02:27:36.225Z,4.70
2022-11-13T02:29:40.693Z,4.70
2022-11-13T02:31:45.081Z,4.70
2022-11-13T02:33:49.468Z,4.60
2022-11-13T02:35:53.958Z,4.60
2022-11-13T02:38:00.128Z,4.60
2022-11-13T02:40:05.623Z,4.60
2022-11-13T02:42:10.143Z,4.50
2022-11-13T02:44:14.971Z,4.50
2022-11-13T02:46:19.445Z,4.50
2022-11-13T02:48:23.849Z,4.40
2022-11-13T02:50:28.238Z,4.40
2022-11-13T02:52:32.665Z,4.50
2022-11-13T02:54:37.065Z,4.50
2022-11-13T02:56:41.432Z,4.40
2022-11-13T02:58:45.857Z,4.50
2022-11-13T03:00:50.245Z,4.40
2022-11-13T03:02:55.244Z,4.40
2022-11-13T03:05:15.006Z,4.40
2022-11-13T03:07:05.943Z,4.40
2022-11-13T03:09:10.305Z,4.30
2022-11-13T03:11:14.733Z,4.30
2022-11-13T03:13:19.114Z,4.30
2022-11-13T03:15:23.493Z,4.20
2022-11-13T03:17:29.724Z,4.20
2022-11-13T03:19:35.024Z,4.20
2022-11-13T03:21:39.443Z,4.20
2022-11-13T03:23:44.836Z,4.10
2022-11-13T03:25:49.217Z,4.10
2022-11-13T03:27:53.592Z,4.10
2022-11-13T03:29:57.970Z,4.10
2022-11-13T03:32:03.030Z,4.10
2022-11-13T03:34:07.392Z,4.10
2022-11-13T03:36:11.796Z,4.10
2022-11-13T03:38:16.160Z,4.00
2022-11-13T03:40:20.548Z,4.10
2022-11-13T03:42:24.962Z,4.00
2022-11-13T03:44:29.337Z,4.00
2022-11-13T03:46:33.725Z,4.00
2022-11-13T03:48:38.260Z,3.90
2022-11-13T03:50:45.619Z,3.90
2022-11-13T03:52:50.040Z,3.90
2022-11-13T03:54:54.432Z,3.90
2022-11-13T03:56:58.797Z,3.90
2022-11-13T03:59:03.183Z,3.90
2022-11-13T04:01:07.593Z,3.80
2022-11-13T04:03:11.972Z,3.80
2022-11-13T04:05:21.519Z,3.80
2022-11-13T04:07:22.573Z,3.70
2022-11-13T04:09:26.998Z,3.70
2022-11-13T04:11:31.396Z,3.60
2022-11-13T04:13:35.762Z,3.50
2022-11-13T04:15:40.272Z,3.50
2022-11-13T04:17:44.720Z,3.50
2022-11-13T04:19:49.133Z,3.50
2022-11-13T04:21:53.488Z,3.40
2022-11-13T04:23:57.844Z,3.40
2022-11-13T04:26:02.284Z,3.30
2022-11-13T04:28:06.666Z,3.30
2022-11-13T04:30:11.799Z,3.40
2022-11-13T04:32:16.171Z,3.30
2022-11-13T04:34:20.540Z,3.30
2022-11-13T04:36:24.959Z,3.30
2022-11-13T04:38:29.705Z,3.30
2022-11-13T04:40:34.195Z,3.30
2022-11-13T04:42:50.552Z,3.30
2022-11-13T04:44:55.060Z,3.20
2022-11-13T04:46:59.448Z,3.20
2022-11-13T04:49:03.826Z,3.20
2022-11-13T04:51:08.192Z,3.20
2022-11-13T04:53:12.590Z,3.20
2022-11-13T04:55:17.045Z,3.20
2022-11-13T04:57:21.457Z,3.20
2022-11-13T04:59:25.823Z,3.20
2022-11-13T05:01:30.405Z,3.20
2022-11-13T05:03:34.868Z,3.20
2022-11-13T05:05:39.221Z,3.20
2022-11-13T05:07:43.621Z,3.20
2022-11-13T05:09:47.996Z,3.20
2022-11-13T05:11:52.397Z,3.20
2022-11-13T05:14:02.118Z,3.20
2022-11-13T05:16:03.496Z,3.20
2022-11-13T05:18:07.868Z,3.20
2022-11-13T05:20:12.491Z,3.20
2022-11-13T05:22:16.896Z,3.10
2022-11-13T05:24:21.260Z,3.10
2022-11-13T05:26:26.152Z,3.10
2022-11-13T05:28:30.874Z,3.10
2022-11-13T05:30:35.428Z,3.20
2022-11-13T05:32:39.856Z,3.10
2022-11-13T05:34:44.250Z,3.10
2022-11-13T05:36:48.633Z,3.20
2022-11-13T05:38:53.033Z,3.10
2022-11-13T05:41:01.458Z,3.10
2022-11-13T05:43:05.872Z,3.10
2022-11-13T05:45:11.019Z,3.10
2022-11-13T05:47:16.443Z,3.00
2022-11-13T05:49:20.898Z,3.10
2022-11-13T05:51:26.722Z,3.00
2022-11-13T05:53:33.014Z,3.10
2022-11-13T05:55:37.429Z,3.10
2022-11-13T05:57:42.262Z,3.10
2022-11-13T05:59:46.731Z,3.10
2022-11-13T06:01:51.166Z,3.10
2022-11-13T06:03:56.008Z,3.00
2022-11-13T06:06:00.516Z,3.00
2022-11-13T06:08:06.033Z,2.90
2022-11-13T06:10:10.572Z,2.80
2022-11-13T06:12:15.053Z,2.80
2022-11-13T06:14:19.570Z,2.70
2022-11-13T06:16:24.981Z,2.60
2022-11-13T06:18:30.227Z,2.70
2022-11-13T06:20:34.867Z,2.70
2022-11-13T06:22:39.274Z,2.70
2022-11-13T06:24:43.692Z,2.70
2022-11-13T06:26:48.221Z,2.60
2022-11-13T06:28:53.245Z,2.50
2022-11-13T06:30:59.458Z,2.50
2022-11-13T06:33:03.970Z,2.50
2022-11-13T06:35:08.990Z,2.40
2022-11-13T06:37:13.374Z,2.50
2022-11-13T06:39:17.907Z,2.50
2022-11-13T06:41:23.208Z,2.50
2022-11-13T06:43:28.131Z,2.50
2022-11-13T06:45:32.573Z,2.60
2022-11-13T06:47:36.945Z,2.60
2022-11-13T06:49:41.438Z,2.60
2022-11-13T06:51:45.891Z,2.50
2022-11-13T06:53:50.596Z,2.50
2022-11-13T06:55:54.942Z,2.50
2022-11-13T06:57:59.346Z,2.50
2022-11-13T07:00:04.160Z,2.50
2022-11-13T07:02:09.009Z,2.50
2022-11-13T07:04:13.430Z,2.40
2022-11-13T07:06:18.751Z,2.40
2022-11-13T07:08:23.125Z,2.40
2022-11-13T07:10:27.514Z,2.40
2022-11-13T07:12:31.926Z,2.40
2022-11-13T07:14:36.293Z,2.40
2022-11-13T07:17:04.726Z,2.50
2022-11-13T07:18:50.173Z,2.50
2022-11-13T07:20:54.634Z,2.50
2022-11-13T07:22:59.587Z,2.60
2022-11-13T07:25:04.129Z,2.50
2022-11-13T07:27:08.534Z,2.60
2022-11-13T07:29:12.926Z,2.60
2022-11-13T07:31:17.721Z,2.60
2022-11-13T07:33:22.105Z,3.40
2022-11-13T07:35:26.513Z,2.70
2022-11-13T07:37:30.945Z,2.70
2022-11-13T07:39:35.325Z,2.80
2022-11-13T07:41:39.735Z,2.90
2022-11-13T07:43:44.138Z,3.00
2022-11-13T07:45:50.725Z,3.00
2022-11-13T07:47:57.863Z,3.10
2022-11-13T07:50:06.883Z,3.30
2022-11-13T07:52:08.467Z,3.40
2022-11-13T07:54:12.951Z,3.50
2022-11-13T07:56:22.750Z,3.70
2022-11-13T07:58:23.604Z,3.80
2022-11-13T08:00:28.321Z,4.00
2022-11-13T08:02:32.782Z,4.10
2022-11-13T08:04:37.139Z,4.40
2022-11-13T08:06:41.528Z,4.50
2022-11-13T08:08:47.055Z,4.80
2022-11-13T08:10:51.434Z,4.80
2022-11-13T08:12:59.713Z,4.90
2022-11-13T08:15:08.165Z,5.00
2022-11-13T08:17:10.884Z,5.10
2022-11-13T08:19:15.266Z,5.30
2022-11-13T08:21:20.659Z,5.50
2022-11-13T08:23:25.048Z,5.70
2022-11-13T08:25:29.967Z,6.00
2022-11-13T08:27:34.578Z,6.20
2022-11-13T08:29:38.954Z,6.30
2022-11-13T08:31:43.411Z,6.40
2022-11-13T08:33:47.868Z,6.50
2022-11-13T08:35:53.247Z,6.50
2022-11-13T08:38:01.530Z,6.60
2022-11-13T08:40:07.069Z,6.70
2022-11-13T08:42:11.471Z,6.70
2022-11-13T08:44:15.839Z,6.70
2022-11-13T08:46:20.650Z,6.70
2022-11-13T08:48:25.202Z,6.80
2022-11-13T08:50:30.336Z,6.80
2022-11-13T08:52:34.709Z,6.90
2022-11-13T08:54:39.064Z,6.90
2022-11-13T08:56:43.477Z,7.00
2022-11-13T08:58:47.867Z,7.10
2022-11-13T09:00:52.228Z,7.20
2022-11-13T09:02:57.019Z,7.20
2022-11-13T09:05:01.384Z,7.30
2022-11-13T09:07:05.907Z,7.30
2022-11-13T09:09:10.510Z,7.40
2022-11-13T09:11:14.926Z,7.50
2022-11-13T09:13:19.305Z,7.60
2022-11-13T09:15:24.653Z,7.70
2022-11-13T09:17:29.203Z,7.80
2022-11-13T09:19:33.604Z,7.90
2022-11-13T09:21:37.985Z,8.00
2022-11-13T09:23:42.892Z,8.20
2022-11-13T09:25:47.408Z,8.30
2022-11-13T09:27:55.580Z,8.40
2022-11-13T09:29:59.943Z,8.40
2022-11-13T09:32:04.547Z,8.50
2022-11-13T09:34:08.955Z,8.50
2022-11-13T09:36:14.556Z,8.60
2022-11-13T09:38:18.936Z,8.60
2022-11-13T09:40:25.133Z,8.70
2022-11-13T09:43:00.410Z,8.80
2022-11-13T09:45:06.784Z,8.90
2022-11-13T09:47:13.773Z,9.10
2022-11-13T09:49:19.924Z,9.20
2022-11-13T09:51:26.452Z,9.40
2022-11-13T09:53:32.696Z,9.60
2022-11-13T09:55:38.944Z,9.80
2022-11-13T09:57:46.489Z,10.10
2022-11-13T09:59:52.886Z,10.40
2022-11-13T10:02:00.388Z,10.50
2022-11-13T10:04:08.917Z,10.70
2022-11-13T10:06:15.201Z,10.90
2022-11-13T10:08:21.385Z,11.10
2022-11-13T10:10:33.781Z,11.30
2022-11-13T10:12:38.165Z,11.40
2022-11-13T10:14:45.419Z,11.50
2022-11-13T10:16:51.819Z,11.60
2022-11-13T10:18:58.483Z,12.10
2022-11-13T10:21:09.468Z,12.50
2022-11-13T10:23:14.618Z,12.70
2022-11-13T10:25:19.969Z,12.80
2022-11-13T10:27:24.402Z,13.10
2022-11-13T10:29:29.381Z,13.50
2022-11-13T10:31:41.443Z,13.60
2022-11-13T10:33:45.907Z,13.60
2022-11-13T10:35:55.626Z,13.70
2022-11-13T10:38:07.801Z,13.70
2022-11-13T10:40:08.801Z,13.70
2022-11-13T10:42:20.711Z,13.80
2022-11-13T10:44:32.190Z,13.90
2022-11-13T10:46:36.739Z,14.10
2022-11-13T10:48:41.125Z,14.30
2022-11-13T10:50:47.284Z,14.50
2022-11-13T10:52:52.668Z,14.60
2022-11-13T10:55:07.188Z,14.80
2022-11-13T10:57:30.009Z,14.80
2022-11-13T10:59:41.342Z,14.80
2022-11-13T11:01:46.309Z,14.90
2022-11-13T11:03:50.739Z,14.90
2022-11-13T11:05:56.035Z,14.90
2022-11-13T11:08:00.474Z,15.00
2022-11-13T11:10:07.071Z,14.90
2022-11-13T11:12:15.809Z,14.90
2022-11-13T11:14:22.297Z,15.00
2022-11-13T11:16:26.809Z,15.00
2022-11-13T11:18:32.977Z,15.00
2022-11-13T11:20:41.605Z,15.10
2022-11-13T11:22:47.806Z,15.30
2022-11-13T11:24:54.018Z,15.30
2022-11-13T11:27:01.059Z,15.40
2022-11-13T11:29:11.170Z,15.50
2022-11-13T11:31:19.481Z,15.50
2022-11-13T11:33:25.678Z,15.60
2022-11-13T11:35:32.268Z,15.70
2022-11-13T11:37:38.497Z,15.70
2022-11-13T11:39:44.889Z,15.70
2022-11-13T11:41:51.529Z,15.60
2022-11-13T11:43:59.809Z,15.70
2022-11-13T11:46:04.378Z,15.70
2022-11-13T11:48:11.528Z,15.70
2022-11-13T11:50:17.233Z,15.70
2022-11-13T11:52:29.217Z,15.80
2022-11-13T11:54:38.021Z,15.70
2022-11-13T11:56:44.471Z,15.70
2022-11-13T11:58:54.707Z,15.80
2022-11-13T12:01:00.930Z,15.80
2022-11-13T12:03:10.989Z,15.80
2022-11-13T12:05:20.329Z,15.80
2022-11-13T12:07:29.828Z,15.80
2022-11-13T12:09:36.086Z,15.70
2022-11-13T12:11:42.280Z,15.60
2022-11-13T12:13:48.936Z,15.60
2022-11-13T12:15:55.524Z,15.60
2022-11-13T12:18:02.757Z,15.70
2022-11-13T12:20:10.369Z,15.70
2022-11-13T12:22:17.041Z,15.80
2022-11-13T12:24:40.592Z,15.80
2022-11-13T12:26:47.671Z,15.70
2022-11-13T12:28:54.412Z,15.80
2022-11-13T12:31:01.798Z,15.70
2022-11-13T12:33:09.660Z,15.70
2022-11-13T12:35:16.020Z,15.70
2022-11-13T12:37:22.747Z,15.70
2022-11-13T12:39:31.077Z,15.80
2022-11-13T12:41:37.923Z,15.80
2022-11-13T12:44:07.593Z,15.80
2022-11-13T12:46:12.601Z,15.80
2022-11-13T12:48:27.620Z,15.80
2022-11-13T12:50:33.105Z,15.80
2022-11-13T12:52:37.540Z,15.80
2022-11-13T12:54:42.071Z,15.80
2022-11-13T12:56:46.436Z,15.80
2022-11-13T12:59:23.615Z,15.70
2022-11-13T13:01:04.112Z,15.70
2022-11-13T13:03:11.216Z,15.60
2022-11-13T13:05:22.200Z,15.60
2022-11-13T13:07:31.172Z,15.60
2022-11-13T13:09:39.983Z,15.50
2022-11-13T13:11:46.243Z,15.50
2022-11-13T13:13:53.319Z,15.50
2022-11-13T13:15:59.267Z,15.50
2022-11-13T13:18:05.225Z,15.50
2022-11-13T13:20:26.919Z,15.50
2022-11-13T13:22:32.123Z,15.60
2022-11-13T13:24:37.422Z,15.60
2022-11-13T13:26:46.639Z,15.60
2022-11-13T13:28:51.676Z,15.60
2022-11-13T13:30:58.856Z,15.60
2022-11-13T13:33:06.398Z,15.50
2022-11-13T13:35:13.588Z,15.50
2022-11-13T13:37:22.211Z,15.50
2022-11-13T13:39:34.226Z,15.50
2022-11-13T13:41:42.612Z,15.50
2022-11-13T13:43:51.743Z,15.50
2022-11-13T13:45:58.061Z,15.50
2022-11-13T13:48:03.780Z,15.50
2022-11-13T13:50:10.281Z,15.60
2022-11-13T13:52:15.432Z,15.60
2022-11-13T13:54:21.648Z,15.60
2022-11-13T13:56:26.618Z,15.60
2022-11-13T13:58:33.016Z,15.60
2022-11-13T14:00:53.167Z,15.60
2022-11-13T14:02:47.142Z,15.60
2022-11-13T14:04:53.061Z,15.60
2022-11-13T14:06:58.501Z,15.60
2022-11-13T14:09:17.785Z,15.70
2022-11-13T14:11:24.543Z,15.60
2022-11-13T14:13:29.045Z,15.60
2022-11-13T14:15:34.213Z,15.70
2022-11-13T14:17:38.689Z,15.60
2022-11-13T14:19:44.944Z,15.60
2022-11-13T14:21:50.383Z,15.60
2022-11-13T14:23:54.884Z,15.60
2022-11-13T14:25:59.386Z,15.50
2022-11-13T14:28:04.141Z,15.50
2022-11-13T14:30:21.797Z,15.50
2022-11-13T14:32:27.529Z,15.50
2022-11-13T14:34:32.064Z,15.40
2022-11-13T14:36:36.848Z,15.40
2022-11-13T14:38:45.402Z,15.40
2022-11-13T14:40:49.677Z,15.40
2022-11-13T14:42:56.948Z,15.30
2022-11-13T14:45:14.921Z,15.30
2022-11-13T14:47:24.524Z,15.30
2022-11-13T14:49:54.832Z,15.20
2022-11-13T14:51:54.746Z,15.10
2022-11-13T14:53:59.976Z,15.10
2022-11-13T14:56:08.307Z,15.10
2022-11-13T14:58:13.747Z,15.00
2022-11-13T15:00:19.483Z,15.00
2022-11-13T15:02:23.845Z,14.90
2022-11-13T15:04:28.281Z,14.80
2022-11-13T15:06:36.973Z,14.80
2022-11-13T15:08:41.386Z,14.80
2022-11-13T15:10:45.820Z,14.70
2022-11-13T15:12:50.211Z,14.70
2022-11-13T15:14:54.614Z,14.50
2022-11-13T15:16:59.311Z,14.40
2022-11-13T15:19:04.806Z,14.40
2022-11-13T15:21:09.231Z,14.30
2022-11-13T15:23:15.025Z,14.30
2022-11-13T15:25:20.653Z,14.20
2022-11-13T15:27:25.014Z,14.20
2022-11-13T15:29:29.407Z,14.10
2022-11-13T15:31:35.122Z,14.00
2022-11-13T15:33:39.510Z,14.00
2022-11-13T15:35:43.996Z,14.00
2022-11-13T15:37:48.517Z,14.00
2022-11-13T15:39:52.923Z,14.00
2022-11-13T15:41:57.584Z,14.00
2022-11-13T15:44:02.985Z,13.90
2022-11-13T15:46:11.985Z,13.80
2022-11-13T15:48:16.393Z,13.60
2022-11-13T15:50:20.798Z,13.40
2022-11-13T15:52:26.428Z,13.30
2022-11-13T15:54:32.268Z,13.10
2022-11-13T15:56:36.953Z,13.00
2022-11-13T15:58:41.361Z,12.80
2022-11-13T16:00:45.740Z,12.70
2022-11-13T16:02:51.348Z,12.40
2022-11-13T16:04:57.082Z,12.30
2022-11-13T16:07:01.887Z,12.20
2022-11-13T16:09:06.306Z,12.00
2022-11-13T16:11:12.941Z,12.00
2022-11-13T16:13:17.361Z,11.90
2022-11-13T16:15:21.977Z,11.80
2022-11-13T16:17:26.958Z,11.70
2022-11-13T16:19:31.386Z,11.70
2022-11-13T16:21:56.737Z,11.80
2022-11-13T16:24:01.138Z,11.80
2022-11-13T16:26:05.931Z,11.80
2022-11-13T16:28:13.186Z,11.70
2022-11-13T16:30:19.798Z,11.70
2022-11-13T16:32:24.190Z,11.80
2022-11-13T16:34:28.569Z,11.80
2022-11-13T16:36:32.997Z,11.70
2022-11-13T16:38:37.406Z,11.80
2022-11-13T16:40:42.678Z,11.70
2022-11-13T16:42:47.336Z,11.60
2022-11-13T16:44:51.720Z,11.70
2022-11-13T16:46:56.127Z,11.40
2022-11-13T16:49:00.874Z,11.30
2022-11-13T16:51:05.334Z,11.20
2022-11-13T16:53:09.717Z,11.20
2022-11-13T16:55:14.345Z,11.10
2022-11-13T16:57:19.241Z,11.00
2022-11-13T16:59:23.634Z,10.80
2022-11-13T17:01:28.026Z,10.60
2022-11-13T17:03:32.530Z,10.40
2022-11-13T17:05:36.885Z,10.20
2022-11-13T17:10:28.899Z,10.20
2022-11-13T17:12:05.960Z,10.00
2022-11-13T17:14:11.675Z,10.00
2022-11-13T17:16:16.065Z,10.00
2022-11-13T17:18:21.007Z,10.00
2022-11-13T17:20:25.424Z,10.00
2022-11-13T17:22:29.813Z,10.10
2022-11-13T17:24:34.232Z,10.10
2022-11-13T17:26:38.630Z,10.20
2022-11-13T17:28:43.053Z,10.30
2022-11-13T17:30:47.635Z,10.20
2022-11-13T17:32:52.066Z,10.20
2022-11-13T17:34:56.419Z,10.30
2022-11-13T17:37:00.921Z,10.30
2022-11-13T17:39:05.345Z,10.30
2022-11-13T17:41:10.241Z,10.40
2022-11-13T17:43:14.663Z,10.30
2022-11-13T17:45:19.034Z,10.40
2022-11-13T17:47:23.458Z,10.40
2022-11-13T17:49:28.536Z,10.30
2022-11-13T17:51:32.922Z,10.30
2022-11-13T17:53:37.341Z,10.20
2022-11-13T17:55:41.719Z,10.10
2022-11-13T17:57:46.096Z,9.90
2022-11-13T17:59:50.513Z,9.80
2022-11-13T18:01:54.988Z,9.70
2022-11-13T18:03:59.938Z,9.60
2022-11-13T18:06:05.042Z,9.60
2022-11-13T18:08:11.016Z,9.60
2022-11-13T18:10:15.769Z,9.50
2022-11-13T18:12:20.398Z,9.40
2022-11-13T18:14:24.834Z,9.40
2022-11-13T18:16:30.906Z,9.30
2022-11-13T18:18:35.426Z,9.30
2022-11-13T18:20:40.276Z,9.40
2022-11-13T18:22:44.713Z,9.40
2022-11-13T18:24:49.229Z,9.50
2022-11-13T18:26:53.732Z,9.50
2022-11-13T18:28:59.067Z,9.50
2022-11-13T18:31:06.551Z,9.50
2022-11-13T18:33:11.010Z,9.50
2022-11-13T18:35:16.427Z,9.40
2022-11-13T18:37:21.129Z,9.40
2022-11-13T18:39:25.605Z,9.30
2022-11-13T18:41:31.867Z,9.20
2022-11-13T18:43:36.596Z,9.20
2022-11-13T18:45:41.185Z,9.20
2022-11-13T18:47:45.661Z,9.20
2022-11-13T18:49:50.200Z,9.10
2022-11-13T18:51:54.709Z,9.10
2022-11-13T18:53:59.110Z,9.10
2022-11-13T18:56:10.477Z,9.10
2022-11-13T18:58:14.861Z,8.80
2022-11-13T19:00:19.649Z,9.00
2022-11-13T19:02:24.108Z,8.90
2022-11-13T19:04:28.567Z,8.90
2022-11-13T19:06:34.370Z,9.00
2022-11-13T19:08:40.852Z,9.00
2022-11-13T19:10:45.454Z,8.80
2022-11-13T19:12:49.876Z,8.70
2022-11-13T19:14:54.277Z,8.50
2022-11-13T19:16:58.643Z,8.40
2022-11-13T19:19:04.057Z,8.30
2022-11-13T19:21:09.757Z,8.20
2022-11-13T19:23:14.173Z,7.90
2022-11-13T19:25:18.653Z,7.80
2022-11-13T19:27:23.112Z,7.80
2022-11-13T19:29:27.696Z,7.70
2022-11-13T19:31:32.813Z,7.60
2022-11-13T19:33:37.299Z,7.60
2022-11-13T19:35:41.732Z,7.40
2022-11-13T19:37:46.229Z,7.20
2022-11-13T19:39:50.939Z,7.30
2022-11-13T19:41:55.698Z,7.40
2022-11-13T19:44:00.603Z,7.50
2022-11-13T19:46:05.722Z,7.60
2022-11-13T19:48:14.880Z,7.70
2022-11-13T19:50:17.967Z,7.70
2022-11-13T19:52:23.305Z,7.70
2022-11-13T19:54:28.906Z,7.70
2022-11-13T19:56:34.904Z,7.70
2022-11-13T19:58:41.246Z,7.80
2022-11-13T20:00:45.758Z,7.70
2022-11-13T20:02:50.174Z,7.60
2022-11-13T20:04:54.592Z,7.70
2022-11-13T20:06:59.024Z,7.70
2022-11-13T20:09:03.829Z,7.80
2022-11-13T20:11:10.051Z,7.80
2022-11-13T20:13:14.453Z,7.80
2022-11-13T20:15:18.827Z,7.70
2022-11-13T20:17:23.437Z,7.50
2022-11-13T20:19:28.616Z,7.40
2022-11-13T20:21:32.968Z,7.30
2022-11-13T20:23:37.379Z,7.10
2022-11-13T20:25:41.741Z,7.00
2022-11-13T20:27:47.688Z,6.90
2022-11-13T20:29:52.245Z,6.90
2022-11-13T20:31:56.613Z,6.90
2022-11-13T20:34:01.022Z,6.90
2022-11-13T20:36:05.876Z,6.90
2022-11-13T20:38:10.335Z,6.90
2022-11-13T20:40:14.786Z,6.90
2022-11-13T20:42:19.634Z,6.90
2022-11-13T20:44:24.049Z,6.90
2022-11-13T20:46:28.884Z,6.80
2022-11-13T20:48:33.672Z,6.90
2022-11-13T20:50:38.137Z,6.90
2022-11-13T20:52:42.490Z,6.80
2022-11-13T20:54:46.902Z,6.70
2022-11-13T20:56:51.297Z,6.70
2022-11-13T20:58:55.826Z,6.60
2022-11-13T21:01:03.779Z,6.50
2022-11-13T21:03:08.219Z,6.50
2022-11-13T21:05:12.649Z,6.40
2022-11-13T21:07:17.117Z,6.30
2022-11-13T21:09:21.556Z,6.30
2022-11-13T21:11:25.965Z,6.20
2022-11-13T21:13:30.705Z,6.20
2022-11-13T21:15:37.567Z,6.10
2022-11-13T21:17:41.999Z,6.20
2022-11-13T21:19:46.407Z,6.10
2022-11-13T21:21:50.773Z,6.10
2022-11-13T21:23:56.406Z,6.10
2022-11-13T21:26:00.889Z,6.00
2022-11-13T21:28:05.871Z,6.00
2022-11-13T21:30:11.598Z,6.00
2022-11-13T21:32:16.284Z,5.90
2022-11-13T21:34:20.993Z,6.00
2022-11-13T21:36:26.132Z,6.10
2022-11-13T21:38:30.860Z,6.20
2022-11-13T21:40:35.450Z,6.30
2022-11-13T21:42:39.828Z,6.40
2022-11-13T21:44:44.237Z,6.50
2022-11-13T21:46:48.639Z,6.50
2022-11-13T21:48:55.921Z,6.50
2022-11-13T21:51:00.317Z,6.40
2022-11-13T21:53:04.724Z,6.30
2022-11-13T21:55:10.296Z,6.40
2022-11-13T21:57:15.199Z,6.40
2022-11-13T21:59:19.607Z,6.40
2022-11-13T22:01:24.350Z,6.30
2022-11-13T22:03:28.740Z,6.30
2022-11-13T22:05:33.142Z,6.30
2022-11-13T22:09:53.221Z,6.20
2022-11-13T22:11:57.587Z,6.20
2022-11-13T22:14:02.318Z,6.20
2022-11-13T22:16:07.689Z,6.20
2022-11-13T22:18:12.166Z,6.20
2022-11-13T22:20:16.631Z,6.20
2022-11-13T22:22:21.117Z,6.20
2022-11-13T22:24:25.521Z,6.10
2022-11-13T22:26:31.075Z,6.10
2022-11-13T22:28:36.326Z,6.00
2022-11-13T22:30:40.689Z,6.00
2022-11-13T22:32:45.089Z,5.90
2022-11-13T22:34:49.487Z,5.90
2022-11-13T22:36:53.881Z,6.00
2022-11-13T22:38:58.726Z,6.00
2022-11-13T22:41:04.081Z,5.90
2022-11-13T22:43:08.521Z,6.00
2022-11-13T22:45:23.270Z,6.00
2022-11-13T22:47:19.170Z,6.00
2022-11-13T22:49:23.525Z,6.10
2022-11-13T22:51:28.800Z,6.00
2022-11-13T22:53:33.321Z,5.90
2022-11-13T22:55:37.692Z,5.80
2022-11-13T22:57:42.102Z,5.80
2022-11-13T22:59:46.519Z,5.90
2022-11-13T23:01:50.905Z,5.90
2022-11-13T23:03:56.198Z,5.80
2022-11-13T23:06:02.430Z,5.90
2022-11-13T23:08:06.865Z,5.90
2022-11-13T23:10:11.245Z,5.80
2022-11-13T23:12:15.632Z,5.70
2022-11-13T23:14:20.037Z,5.60
2022-11-13T23:16:25.092Z,5.60
2022-11-13T23:18:30.663Z,5.70
2022-11-13T23:20:39.011Z,5.60
2022-11-13T23:22:43.385Z,5.70
2022-11-13T23:24:47.785Z,5.70
2022-11-13T23:26:52.174Z,5.70
2022-11-13T23:28:56.700Z,5.60
2022-11-13T23:31:01.111Z,5.60
2022-11-13T23:33:05.506Z,5.50
2022-11-13T23:35:10.086Z,5.50
2022-11-13T23:37:14.496Z,5.50
2022-11-13T23:39:18.909Z,5.50
2022-11-13T23:41:23.276Z,5.40
2022-11-13T23:43:47.763Z,5.40
2022-11-13T23:45:34.337Z,5.30
2022-11-13T23:47:38.756Z,5.30
2022-11-13T23:49:43.176Z,5.30
2022-11-13T23:51:47.578Z,5.20
2022-11-13T23:53:51.978Z,5.20
2022-11-13T23:55:56.370Z,5.10
2022-11-13T23:58:01.688Z,5.10
